sensor_id;sensor_type;location;lat;lon;timestamp;temperature;humidity
33109;HTU21D;19481;51.118;6.940;2023-05-07T00:03:36;15.22;64.50
33109;HTU21D;19481;51.118;6.940;2023-05-07T00:08:39;15.17;64.73
33109;HTU21D;19481;51.118;6.940;2023-05-07T00:13:41;15.19;64.78
33109;HTU21D;19481;51.118;6.940;2023-05-07T00:18:43;15.25;64.61
33109;HTU21D;19481;51.118;6.940;2023-05-07T00:23:46;15.22;64.63
33109;HTU21D;19481;51.118;6.940;2023-05-07T00:28:48;15.19;64.75
33109;HTU21D;19481;51.118;6.940;2023-05-07T00:33:49;15.15;64.79
33109;HTU21D;19481;51.118;6.940;2023-05-07T00:38:53;15.14;64.56
33109;HTU21D;19481;51.118;6.940;2023-05-07T00:43:55;15.14;64.37
33109;HTU21D;19481;51.118;6.940;2023-05-07T00:48:57;15.13;64.37
33109;HTU21D;19481;51.118;6.940;2023-05-07T00:54:02;15.09;64.42
33109;HTU21D;19481;51.118;6.940;2023-05-07T00:59:04;15.13;64.27
33109;HTU21D;19481;51.118;6.940;2023-05-07T01:04:05;15.08;64.58
33109;HTU21D;19481;51.118;6.940;2023-05-07T01:09:08;15.00;64.86
33109;HTU21D;19481;51.118;6.940;2023-05-07T01:14:10;15.00;64.79
33109;HTU21D;19481;51.118;6.940;2023-05-07T01:19:12;14.96;65.09
33109;HTU21D;19481;51.118;6.940;2023-05-07T01:24:18;14.95;64.98
33109;HTU21D;19481;51.118;6.940;2023-05-07T01:29:19;15.01;64.74
33109;HTU21D;19481;51.118;6.940;2023-05-07T01:34:21;14.93;64.99
33109;HTU21D;19481;51.118;6.940;2023-05-07T01:39:25;14.83;65.54
33109;HTU21D;19481;51.118;6.940;2023-05-07T01:44:28;14.79;65.74
33109;HTU21D;19481;51.118;6.940;2023-05-07T01:49:30;14.81;65.66
33109;HTU21D;19481;51.118;6.940;2023-05-07T01:54:33;14.77;65.78
33109;HTU21D;19481;51.118;6.940;2023-05-07T01:59:35;14.77;65.83
33109;HTU21D;19481;51.118;6.940;2023-05-07T02:04:36;14.74;65.88
33109;HTU21D;19481;51.118;6.940;2023-05-07T02:09:39;14.70;65.89
33109;HTU21D;19481;51.118;6.940;2023-05-07T02:14:41;14.68;65.88
33109;HTU21D;19481;51.118;6.940;2023-05-07T02:19:42;14.62;66.33
33109;HTU21D;19481;51.118;6.940;2023-05-07T02:24:45;14.60;66.00
33109;HTU21D;19481;51.118;6.940;2023-05-07T02:29:47;14.55;65.91
33109;HTU21D;19481;51.118;6.940;2023-05-07T02:34:50;14.52;65.75
33109;HTU21D;19481;51.118;6.940;2023-05-07T02:39:53;14.44;65.78
33109;HTU21D;19481;51.118;6.940;2023-05-07T02:44:54;14.34;65.98
33109;HTU21D;19481;51.118;6.940;2023-05-07T02:49:56;14.22;66.30
33109;HTU21D;19481;51.118;6.940;2023-05-07T02:54:59;14.08;66.46
33109;HTU21D;19481;51.118;6.940;2023-05-07T03:00:10;14.01;66.72
33109;HTU21D;19481;51.118;6.940;2023-05-07T03:05:12;13.96;66.62
33109;HTU21D;19481;51.118;6.940;2023-05-07T03:10:16;13.94;66.49
33109;HTU21D;19481;51.118;6.940;2023-05-07T03:15:18;13.92;66.43
33109;HTU21D;19481;51.118;6.940;2023-05-07T03:20:21;13.84;66.42
33109;HTU21D;19481;51.118;6.940;2023-05-07T03:25:24;13.76;66.49
33109;HTU21D;19481;51.118;6.940;2023-05-07T03:30:26;13.73;66.62
33109;HTU21D;19481;51.118;6.940;2023-05-07T03:35:28;13.65;66.89
33109;HTU21D;19481;51.118;6.940;2023-05-07T03:40:31;13.53;67.03
33109;HTU21D;19481;51.118;6.940;2023-05-07T03:45:32;13.48;67.12
33109;HTU21D;19481;51.118;6.940;2023-05-07T03:50:34;13.38;67.46
33109;HTU21D;19481;51.118;6.940;2023-05-07T03:55:37;13.26;67.65
33109;HTU21D;19481;51.118;6.940;2023-05-07T04:00:38;13.29;67.52
33109;HTU21D;19481;51.118;6.940;2023-05-07T04:05:41;13.31;67.30
33109;HTU21D;19481;51.118;6.940;2023-05-07T04:10:44;13.35;67.11
33109;HTU21D;19481;51.118;6.940;2023-05-07T04:15:46;13.46;67.04
33109;HTU21D;19481;51.118;6.940;2023-05-07T04:20:49;13.55;66.82
33109;HTU21D;19481;51.118;6.940;2023-05-07T04:25:52;13.67;66.33
33109;HTU21D;19481;51.118;6.940;2023-05-07T04:30:54;13.76;66.16
33109;HTU21D;19481;51.118;6.940;2023-05-07T04:35:56;13.86;66.14
33109;HTU21D;19481;51.118;6.940;2023-05-07T04:41:02;13.99;66.07
33109;HTU21D;19481;51.118;6.940;2023-05-07T04:46:05;14.15;65.95
33109;HTU21D;19481;51.118;6.940;2023-05-07T04:51:07;14.26;65.69
33109;HTU21D;19481;51.118;6.940;2023-05-07T04:56:09;14.38;65.38
33109;HTU21D;19481;51.118;6.940;2023-05-07T05:01:11;14.51;64.97
33109;HTU21D;19481;51.118;6.940;2023-05-07T05:06:13;14.66;64.72
33109;HTU21D;19481;51.118;6.940;2023-05-07T05:11:16;14.83;64.46
33109;HTU21D;19481;51.118;6.940;2023-05-07T05:16:17;14.96;64.47
33109;HTU21D;19481;51.118;6.940;2023-05-07T05:21:19;15.14;64.19
33109;HTU21D;19481;51.118;6.940;2023-05-07T05:26:22;15.17;64.24
33109;HTU21D;19481;51.118;6.940;2023-05-07T05:31:23;15.30;63.94
33109;HTU21D;19481;51.118;6.940;2023-05-07T05:36:25;15.40;63.72
33109;HTU21D;19481;51.118;6.940;2023-05-07T05:41:28;15.45;63.76
33109;HTU21D;19481;51.118;6.940;2023-05-07T05:46:30;15.52;63.64
33109;HTU21D;19481;51.118;6.940;2023-05-07T05:51:31;15.68;63.19
33109;HTU21D;19481;51.118;6.940;2023-05-07T05:56:34;15.67;63.29
33109;HTU21D;19481;51.118;6.940;2023-05-07T06:01:36;15.77;63.03
33109;HTU21D;19481;51.118;6.940;2023-05-07T06:06:38;15.84;62.84
33109;HTU21D;19481;51.118;6.940;2023-05-07T06:11:40;15.88;62.86
33109;HTU21D;19481;51.118;6.940;2023-05-07T06:16:43;15.97;62.63
33109;HTU21D;19481;51.118;6.940;2023-05-07T06:21:45;16.18;62.18
33109;HTU21D;19481;51.118;6.940;2023-05-07T06:26:48;16.31;62.08
33109;HTU21D;19481;51.118;6.940;2023-05-07T06:31:49;16.48;61.85
33109;HTU21D;19481;51.118;6.940;2023-05-07T06:36:51;16.69;61.57
33109;HTU21D;19481;51.118;6.940;2023-05-07T06:41:54;17.07;60.73
33109;HTU21D;19481;51.118;6.940;2023-05-07T06:46:56;17.26;60.51
33109;HTU21D;19481;51.118;6.940;2023-05-07T06:51:57;17.47;60.35
33109;HTU21D;19481;51.118;6.940;2023-05-07T06:57:00;17.88;59.61
33109;HTU21D;19481;51.118;6.940;2023-05-07T07:02:02;18.24;59.04
33109;HTU21D;19481;51.118;6.940;2023-05-07T07:07:04;18.53;58.90
33109;HTU21D;19481;51.118;6.940;2023-05-07T07:12:06;19.14;57.85
33109;HTU21D;19481;51.118;6.940;2023-05-07T07:17:08;20.40;55.71
33109;HTU21D;19481;51.118;6.940;2023-05-07T07:22:10;20.43;57.09
33109;HTU21D;19481;51.118;6.940;2023-05-07T07:27:12;21.02;56.62
33109;HTU21D;19481;51.118;6.940;2023-05-07T07:32:14;21.42;56.55
33109;HTU21D;19481;51.118;6.940;2023-05-07T07:37:16;22.13;55.52
33109;HTU21D;19481;51.118;6.940;2023-05-07T07:42:19;22.31;56.05
33109;HTU21D;19481;51.118;6.940;2023-05-07T07:47:20;23.12;54.35
33109;HTU21D;19481;51.118;6.940;2023-05-07T07:52:22;22.76;55.45
33109;HTU21D;19481;51.118;6.940;2023-05-07T07:57:25;23.11;53.86
33109;HTU21D;19481;51.118;6.940;2023-05-07T08:02:26;22.58;55.20
33109;HTU21D;19481;51.118;6.940;2023-05-07T08:07:28;22.40;55.27
33109;HTU21D;19481;51.118;6.940;2023-05-07T08:12:31;22.84;53.59
33109;HTU21D;19481;51.118;6.940;2023-05-07T08:17:33;22.55;54.16
33109;HTU21D;19481;51.118;6.940;2023-05-07T08:22:35;23.17;52.17
33109;HTU21D;19481;51.118;6.940;2023-05-07T08:27:38;22.69;53.08
33109;HTU21D;19481;51.118;6.940;2023-05-07T08:32:39;22.94;50.92
33109;HTU21D;19481;51.118;6.940;2023-05-07T08:37:41;22.56;52.54
33109;HTU21D;19481;51.118;6.940;2023-05-07T08:42:44;22.20;52.73
33109;HTU21D;19481;51.118;6.940;2023-05-07T08:47:47;22.60;50.84
33109;HTU21D;19481;51.118;6.940;2023-05-07T08:52:50;22.69;50.42
33109;HTU21D;19481;51.118;6.940;2023-05-07T08:57:53;23.52;48.56
33109;HTU21D;19481;51.118;6.940;2023-05-07T09:02:55;23.13;50.05
33109;HTU21D;19481;51.118;6.940;2023-05-07T09:07:59;23.51;49.03
33109;HTU21D;19481;51.118;6.940;2023-05-07T09:13:02;23.32;49.39
33109;HTU21D;19481;51.118;6.940;2023-05-07T09:18:04;24.04;47.80
33109;HTU21D;19481;51.118;6.940;2023-05-07T09:23:06;24.92;46.70
33109;HTU21D;19481;51.118;6.940;2023-05-07T09:28:09;26.55;43.44
33109;HTU21D;19481;51.118;6.940;2023-05-07T09:33:11;26.60;45.37
33109;HTU21D;19481;51.118;6.940;2023-05-07T09:38:13;27.66;43.61
33109;HTU21D;19481;51.118;6.940;2023-05-07T09:43:16;27.39;44.46
33109;HTU21D;19481;51.118;6.940;2023-05-07T09:48:18;27.67;43.51
33109;HTU21D;19481;51.118;6.940;2023-05-07T09:53:20;27.07;44.62
33109;HTU21D;19481;51.118;6.940;2023-05-07T09:58:25;27.41;42.81
33109;HTU21D;19481;51.118;6.940;2023-05-07T10:03:27;26.53;45.32
33109;HTU21D;19481;51.118;6.940;2023-05-07T10:08:31;27.61;42.18
33109;HTU21D;19481;51.118;6.940;2023-05-07T10:13:34;27.70;41.84
33109;HTU21D;19481;51.118;6.940;2023-05-07T10:18:38;26.22;45.41
33109;HTU21D;19481;51.118;6.940;2023-05-07T10:23:45;25.86;43.62
33109;HTU21D;19481;51.118;6.940;2023-05-07T10:28:51;26.81;42.10
33109;HTU21D;19481;51.118;6.940;2023-05-07T10:33:55;27.32;41.36
33109;HTU21D;19481;51.118;6.940;2023-05-07T10:38:57;26.73;42.76
33109;HTU21D;19481;51.118;6.940;2023-05-07T10:44:00;26.94;41.74
33109;HTU21D;19481;51.118;6.940;2023-05-07T10:49:09;28.00;33.77
33109;HTU21D;19481;51.118;6.940;2023-05-07T10:54:21;27.05;32.32
33109;HTU21D;19481;51.118;6.940;2023-05-07T10:59:35;27.95;36.77
33109;HTU21D;19481;51.118;6.940;2023-05-07T11:04:41;27.85;39.72
33109;HTU21D;19481;51.118;6.940;2023-05-07T11:10:02;26.67;35.16
33109;HTU21D;19481;51.118;6.940;2023-05-07T11:15:07;26.69;37.59
33109;HTU21D;19481;51.118;6.940;2023-05-07T11:20:09;25.59;42.86
33109;HTU21D;19481;51.118;6.940;2023-05-07T11:25:17;25.39;39.29
33109;HTU21D;19481;51.118;6.940;2023-05-07T11:30:20;25.22;42.05
33109;HTU21D;19481;51.118;6.940;2023-05-07T11:35:23;25.56;40.70
33109;HTU21D;19481;51.118;6.940;2023-05-07T11:40:25;26.18;39.48
33109;HTU21D;19481;51.118;6.940;2023-05-07T11:45:28;26.81;38.24
33109;HTU21D;19481;51.118;6.940;2023-05-07T11:50:30;26.50;39.12
33109;HTU21D;19481;51.118;6.940;2023-05-07T11:55:31;26.10;40.06
33109;HTU21D;19481;51.118;6.940;2023-05-07T12:00:34;26.46;39.35
33109;HTU21D;19481;51.118;6.940;2023-05-07T12:05:36;26.22;40.02
33109;HTU21D;19481;51.118;6.940;2023-05-07T12:10:42;25.79;40.83
33109;HTU21D;19481;51.118;6.940;2023-05-07T12:15:45;25.38;40.91
33109;HTU21D;19481;51.118;6.940;2023-05-07T12:20:47;24.93;41.94
33109;HTU21D;19481;51.118;6.940;2023-05-07T12:25:49;25.54;40.37
33109;HTU21D;19481;51.118;6.940;2023-05-07T12:30:53;25.78;39.74
33109;HTU21D;19481;51.118;6.940;2023-05-07T12:35:55;25.99;39.23
33109;HTU21D;19481;51.118;6.940;2023-05-07T12:40:57;25.64;40.19
33109;HTU21D;19481;51.118;6.940;2023-05-07T12:46:03;25.59;39.85
33109;HTU21D;19481;51.118;6.940;2023-05-07T12:51:05;25.35;40.78
33109;HTU21D;19481;51.118;6.940;2023-05-07T12:56:08;25.14;41.06
33109;HTU21D;19481;51.118;6.940;2023-05-07T13:01:11;24.84;41.39
33109;HTU21D;19481;51.118;6.940;2023-05-07T13:06:15;24.85;41.28
33109;HTU21D;19481;51.118;6.940;2023-05-07T13:11:17;24.71;41.46
33109;HTU21D;19481;51.118;6.940;2023-05-07T13:16:20;24.41;42.07
33109;HTU21D;19481;51.118;6.940;2023-05-07T13:21:21;24.41;42.12
33109;HTU21D;19481;51.118;6.940;2023-05-07T13:26:23;24.32;42.29
33109;HTU21D;19481;51.118;6.940;2023-05-07T13:31:26;24.19;42.84
33109;HTU21D;19481;51.118;6.940;2023-05-07T13:36:28;23.79;43.64
33109;HTU21D;19481;51.118;6.940;2023-05-07T13:41:33;23.44;44.27
33109;HTU21D;19481;51.118;6.940;2023-05-07T13:46:36;22.86;45.61
33109;HTU21D;19481;51.118;6.940;2023-05-07T13:51:38;22.79;45.39
33109;HTU21D;19481;51.118;6.940;2023-05-07T13:56:39;22.69;45.22
33109;HTU21D;19481;51.118;6.940;2023-05-07T14:01:42;22.68;45.06
33109;HTU21D;19481;51.118;6.940;2023-05-07T14:06:44;22.65;45.09
33109;HTU21D;19481;51.118;6.940;2023-05-07T14:11:45;22.69;45.17
33109;HTU21D;19481;51.118;6.940;2023-05-07T14:16:49;21.97;47.56
33109;HTU21D;19481;51.118;6.940;2023-05-07T14:21:50;21.34;48.58
33109;HTU21D;19481;51.118;6.940;2023-05-07T14:26:52;20.51;50.76
33109;HTU21D;19481;51.118;6.940;2023-05-07T14:31:55;19.53;53.32
33109;HTU21D;19481;51.118;6.940;2023-05-07T14:36:57;18.68;55.25
33109;HTU21D;19481;51.118;6.940;2023-05-07T14:41:58;17.65;57.50
33109;HTU21D;19481;51.118;6.940;2023-05-07T14:47:01;16.81;59.37
33109;HTU21D;19481;51.118;6.940;2023-05-07T14:52:03;16.75;58.68
33109;HTU21D;19481;51.118;6.940;2023-05-07T14:57:08;16.54;58.97
33109;HTU21D;19481;51.118;6.940;2023-05-07T15:02:11;16.85;57.99
33109;HTU21D;19481;51.118;6.940;2023-05-07T15:07:13;17.01;57.51
33109;HTU21D;19481;51.118;6.940;2023-05-07T15:12:15;17.08;57.99
33109;HTU21D;19481;51.118;6.940;2023-05-07T15:17:18;17.30;60.48
33109;HTU21D;19481;51.118;6.940;2023-05-07T15:22:19;17.48;57.64
33109;HTU21D;19481;51.118;6.940;2023-05-07T15:27:22;17.62;57.63
33109;HTU21D;19481;51.118;6.940;2023-05-07T15:32:25;17.67;57.51
33109;HTU21D;19481;51.118;6.940;2023-05-07T15:37:26;17.77;57.66
33109;HTU21D;19481;51.118;6.940;2023-05-07T15:42:28;17.87;57.83
33109;HTU21D;19481;51.118;6.940;2023-05-07T15:47:32;18.00;57.94
33109;HTU21D;19481;51.118;6.940;2023-05-07T15:52:34;18.28;57.33
33109;HTU21D;19481;51.118;6.940;2023-05-07T15:57:35;18.52;57.18
33109;HTU21D;19481;51.118;6.940;2023-05-07T16:02:39;18.79;56.74
33109;HTU21D;19481;51.118;6.940;2023-05-07T16:07:40;19.06;56.44
33109;HTU21D;19481;51.118;6.940;2023-05-07T16:12:43;19.14;56.61
33109;HTU21D;19481;51.118;6.940;2023-05-07T16:17:46;19.28;56.68
33109;HTU21D;19481;51.118;6.940;2023-05-07T16:22:51;19.48;56.30
33109;HTU21D;19481;51.118;6.940;2023-05-07T16:27:53;19.60;56.29
33109;HTU21D;19481;51.118;6.940;2023-05-07T16:32:56;19.63;56.52
33109;HTU21D;19481;51.118;6.940;2023-05-07T16:37:57;19.59;56.93
33109;HTU21D;19481;51.118;6.940;2023-05-07T16:42:59;19.71;56.68
33109;HTU21D;19481;51.118;6.940;2023-05-07T16:48:05;19.69;57.13
33109;HTU21D;19481;51.118;6.940;2023-05-07T16:53:07;19.66;57.26
33109;HTU21D;19481;51.118;6.940;2023-05-07T16:58:10;19.56;57.87
33109;HTU21D;19481;51.118;6.940;2023-05-07T17:03:13;19.55;57.87
33109;HTU21D;19481;51.118;6.940;2023-05-07T17:08:14;19.48;58.10
33109;HTU21D;19481;51.118;6.940;2023-05-07T17:13:16;19.30;58.58
33109;HTU21D;19481;51.118;6.940;2023-05-07T17:18:19;19.27;58.87
33109;HTU21D;19481;51.118;6.940;2023-05-07T17:23:21;19.29;58.89
33109;HTU21D;19481;51.118;6.940;2023-05-07T17:28:22;19.26;59.17
33109;HTU21D;19481;51.118;6.940;2023-05-07T17:33:25;19.17;59.49
33109;HTU21D;19481;51.118;6.940;2023-05-07T17:38:27;18.91;60.40
33109;HTU21D;19481;51.118;6.940;2023-05-07T17:43:29;18.94;60.19
33109;HTU21D;19481;51.118;6.940;2023-05-07T17:48:32;18.84;60.60
33109;HTU21D;19481;51.118;6.940;2023-05-07T17:53:33;18.89;60.25
33109;HTU21D;19481;51.118;6.940;2023-05-07T17:58:35;18.88;60.35
33109;HTU21D;19481;51.118;6.940;2023-05-07T18:03:38;18.68;61.36
33109;HTU21D;19481;51.118;6.940;2023-05-07T18:08:39;18.59;61.75
33109;HTU21D;19481;51.118;6.940;2023-05-07T18:13:41;18.55;61.82
33109;HTU21D;19481;51.118;6.940;2023-05-07T18:18:44;18.52;62.00
33109;HTU21D;19481;51.118;6.940;2023-05-07T18:23:46;18.47;62.23
33109;HTU21D;19481;51.118;6.940;2023-05-07T18:28:48;18.47;62.34
33109;HTU21D;19481;51.118;6.940;2023-05-07T18:33:51;18.49;62.23
33109;HTU21D;19481;51.118;6.940;2023-05-07T18:38:55;18.38;62.62
33109;HTU21D;19481;51.118;6.940;2023-05-07T18:43:56;18.40;62.39
33109;HTU21D;19481;51.118;6.940;2023-05-07T18:48:59;18.28;62.73
33109;HTU21D;19481;51.118;6.940;2023-05-07T18:54:01;18.20;63.10
33109;HTU21D;19481;51.118;6.940;2023-05-07T18:59:02;18.09;63.47
33109;HTU21D;19481;51.118;6.940;2023-05-07T19:04:05;18.07;63.52
33109;HTU21D;19481;51.118;6.940;2023-05-07T19:09:07;17.94;63.95
33109;HTU21D;19481;51.118;6.940;2023-05-07T19:14:09;17.91;63.96
33109;HTU21D;19481;51.118;6.940;2023-05-07T19:19:12;17.83;64.18
33109;HTU21D;19481;51.118;6.940;2023-05-07T19:24:13;17.74;64.53
33109;HTU21D;19481;51.118;6.940;2023-05-07T19:29:15;17.66;64.77
33109;HTU21D;19481;51.118;6.940;2023-05-07T19:34:18;17.62;64.85
33109;HTU21D;19481;51.118;6.940;2023-05-07T19:39:20;17.67;64.46
33109;HTU21D;19481;51.118;6.940;2023-05-07T19:44:21;17.72;64.18
33109;HTU21D;19481;51.118;6.940;2023-05-07T19:49:25;17.77;64.08
33109;HTU21D;19481;51.118;6.940;2023-05-07T19:54:27;17.77;64.24
33109;HTU21D;19481;51.118;6.940;2023-05-07T19:59:28;17.73;64.30
33109;HTU21D;19481;51.118;6.940;2023-05-07T20:04:31;17.68;64.32
33109;HTU21D;19481;51.118;6.940;2023-05-07T20:09:37;17.59;64.29
33109;HTU21D;19481;51.118;6.940;2023-05-07T20:14:38;17.51;64.26
33109;HTU21D;19481;51.118;6.940;2023-05-07T20:19:41;17.48;64.01
33109;HTU21D;19481;51.118;6.940;2023-05-07T20:24:43;17.48;63.92
33109;HTU21D;19481;51.118;6.940;2023-05-07T20:29:45;17.40;63.93
33109;HTU21D;19481;51.118;6.940;2023-05-07T20:34:48;17.30;64.23
33109;HTU21D;19481;51.118;6.940;2023-05-07T20:39:50;17.28;64.19
33109;HTU21D;19481;51.118;6.940;2023-05-07T20:44:52;17.26;64.03
33109;HTU21D;19481;51.118;6.940;2023-05-07T20:49:55;17.25;64.05
33109;HTU21D;19481;51.118;6.940;2023-05-07T20:54:57;17.22;64.04
33109;HTU21D;19481;51.118;6.940;2023-05-07T20:59:58;17.17;64.22
33109;HTU21D;19481;51.118;6.940;2023-05-07T21:05:02;17.10;64.36
33109;HTU21D;19481;51.118;6.940;2023-05-07T21:10:04;17.04;64.58
33109;HTU21D;19481;51.118;6.940;2023-05-07T21:15:07;17.00;64.81
33109;HTU21D;19481;51.118;6.940;2023-05-07T21:20:11;16.91;65.15
33109;HTU21D;19481;51.118;6.940;2023-05-07T21:25:12;16.89;65.15
33109;HTU21D;19481;51.118;6.940;2023-05-07T21:30:14;16.84;65.37
33109;HTU21D;19481;51.118;6.940;2023-05-07T21:35:18;16.78;65.40
33109;HTU21D;19481;51.118;6.940;2023-05-07T21:40:20;16.73;65.51
33109;HTU21D;19481;51.118;6.940;2023-05-07T21:45:21;16.67;66.19
33109;HTU21D;19481;51.118;6.940;2023-05-07T21:50:24;16.60;65.88
33109;HTU21D;19481;51.118;6.940;2023-05-07T21:55:26;16.56;66.11
33109;HTU21D;19481;51.118;6.940;2023-05-07T22:00:28;16.56;65.84
33109;HTU21D;19481;51.118;6.940;2023-05-07T22:05:31;16.49;66.07
33109;HTU21D;19481;51.118;6.940;2023-05-07T22:10:33;16.46;66.08
33109;HTU21D;19481;51.118;6.940;2023-05-07T22:15:35;16.45;65.98
33109;HTU21D;19481;51.118;6.940;2023-05-07T22:20:37;16.43;66.20
33109;HTU21D;19481;51.118;6.940;2023-05-07T22:25:39;16.42;66.10
33109;HTU21D;19481;51.118;6.940;2023-05-07T22:30:41;16.40;66.05
33109;HTU21D;19481;51.118;6.940;2023-05-07T22:35:44;16.40;65.96
33109;HTU21D;19481;51.118;6.940;2023-05-07T22:40:45;16.42;65.88
33109;HTU21D;19481;51.118;6.940;2023-05-07T22:45:47;16.40;66.05
33109;HTU21D;19481;51.118;6.940;2023-05-07T22:50:50;16.41;66.14
33109;HTU21D;19481;51.118;6.940;2023-05-07T22:55:52;16.33;66.54
33109;HTU21D;19481;51.118;6.940;2023-05-07T23:00:54;16.27;66.91
33109;HTU21D;19481;51.118;6.940;2023-05-07T23:05:56;16.19;67.23
33109;HTU21D;19481;51.118;6.940;2023-05-07T23:10:58;16.26;66.99
33109;HTU21D;19481;51.118;6.940;2023-05-07T23:16:00;16.22;67.18
33109;HTU21D;19481;51.118;6.940;2023-05-07T23:21:03;16.19;67.18
33109;HTU21D;19481;51.118;6.940;2023-05-07T23:26:05;16.11;67.54
33109;HTU21D;19481;51.118;6.940;2023-05-07T23:31:07;16.05;67.61
33109;HTU21D;19481;51.118;6.940;2023-05-07T23:36:10;16.04;67.46
33109;HTU21D;19481;51.118;6.940;2023-05-07T23:41:12;15.98;67.72
33109;HTU21D;19481;51.118;6.940;2023-05-07T23:46:13;15.99;67.72
33109;HTU21D;19481;51.118;6.940;2023-05-07T23:51:16;15.95;67.96
33109;HTU21D;19481;51.118;6.940;2023-05-07T23:56:18;15.90;68.23
